createdAt,value
2023-08-08T00:00:53.924Z,101576.66
2023-08-08T00:03:23.389Z,101571.25
2023-08-08T00:05:52.907Z,101573.81
2023-08-08T00:08:22.069Z,101567.53
2023-08-08T00:10:51.495Z,101562.09
2023-08-08T00:13:20.726Z,101565.66
2023-08-08T00:15:49.983Z,101566.47
2023-08-08T00:18:19.298Z,101563.72
2023-08-08T00:20:48.640Z,101556.50
2023-08-08T00:23:17.850Z,101562.69
2023-08-08T00:25:51.248Z,101561.75
2023-08-08T00:28:20.687Z,101557.19
2023-08-08T00:30:50.023Z,101563.34
2023-08-08T00:33:19.367Z,101557.06
2023-08-08T00:35:48.610Z,101555.25
2023-08-08T00:38:19.862Z,101553.44
2023-08-08T00:40:49.308Z,101546.34
2023-08-08T00:43:18.557Z,101552.53
2023-08-08T00:45:48.128Z,101544.53
2023-08-08T00:48:18.792Z,101548.09
2023-08-08T00:50:50.644Z,101541.88
2023-08-08T00:53:21.859Z,101543.59
2023-08-08T00:55:51.524Z,101546.22
2023-08-08T00:58:21.167Z,101543.50
2023-08-08T01:00:50.417Z,101539.94
2023-08-08T01:03:19.800Z,101535.44
2023-08-08T01:06:04.210Z,101536.31
2023-08-08T01:08:44.638Z,101532.72
2023-08-08T01:11:14.977Z,101530.91
2023-08-08T01:13:48.059Z,101540.66
2023-08-08T01:16:19.719Z,101537.97
2023-08-08T01:18:51.987Z,101537.94
2023-08-08T01:21:21.250Z,101535.25
2023-08-08T01:23:58.826Z,101538.81
2023-08-08T01:26:30.058Z,101531.56
2023-08-08T01:28:59.300Z,101533.38
2023-08-08T01:31:28.494Z,101536.06
2023-08-08T01:33:58.087Z,101528.94
2023-08-08T01:36:51.669Z,101531.63
2023-08-08T01:39:27.801Z,101533.44
2023-08-08T01:41:59.120Z,101530.81
2023-08-08T01:44:30.795Z,101527.34
2023-08-08T01:47:00.485Z,101531.91
2023-08-08T01:49:29.717Z,101512.31
2023-08-08T01:51:59.029Z,101521.28
2023-08-08T01:54:28.466Z,101520.41
2023-08-08T01:56:57.881Z,101512.44
2023-08-08T01:59:27.132Z,101516.88
2023-08-08T02:01:56.382Z,101516.00
2023-08-08T02:04:26.026Z,101507.03
2023-08-08T02:06:55.210Z,101511.50
2023-08-08T02:09:24.434Z,101515.06
2023-08-08T02:11:54.690Z,101507.91
2023-08-08T02:14:24.584Z,101509.66
2023-08-08T02:16:53.958Z,101503.41
2023-08-08T02:19:23.422Z,101506.09
2023-08-08T02:21:52.900Z,101503.47
2023-08-08T02:24:22.119Z,101498.97
2023-08-08T02:26:51.826Z,101500.78
2023-08-08T02:29:21.031Z,101496.38
2023-08-08T02:31:50.339Z,101492.69
2023-08-08T02:34:20.712Z,101492.75
2023-08-08T02:36:49.965Z,101493.69
2023-08-08T02:39:19.198Z,101491.88
2023-08-08T02:41:48.398Z,101489.25
2023-08-08T02:44:18.313Z,101484.78
2023-08-08T02:46:48.109Z,101493.75
2023-08-08T02:49:17.520Z,101493.84
2023-08-08T02:51:46.682Z,101495.69
2023-08-08T02:54:16.258Z,101497.56
2023-08-08T02:56:46.441Z,101499.53
2023-08-08T02:59:16.119Z,101496.06
2023-08-08T03:01:46.494Z,101494.34
2023-08-08T03:04:20.182Z,101484.59
2023-08-08T03:06:49.492Z,101479.25
2023-08-08T03:09:18.748Z,101475.75
2023-08-08T03:11:48.345Z,101478.47
2023-08-08T03:14:18.648Z,101480.34
2023-08-08T03:16:47.860Z,101483.13
2023-08-08T03:19:17.327Z,101487.59
2023-08-08T03:21:46.674Z,101482.25
2023-08-08T03:24:16.769Z,101481.38
2023-08-08T03:26:46.096Z,101483.19
2023-08-08T03:29:15.605Z,101476.94
2023-08-08T03:31:49.193Z,101481.38
2023-08-08T03:34:19.187Z,101476.00
2023-08-08T03:36:48.562Z,101483.13
2023-08-08T03:39:17.978Z,101468.84
2023-08-08T03:41:48.209Z,101477.75
2023-08-08T03:44:17.560Z,101473.41
2023-08-08T03:46:47.153Z,101466.28
2023-08-08T03:49:17.076Z,101465.34
2023-08-08T03:51:46.354Z,101466.28
2023-08-08T03:54:16.396Z,101466.34
2023-08-08T03:56:46.779Z,101465.53
2023-08-08T03:59:16.684Z,101466.50
2023-08-08T04:01:46.142Z,101460.28
2023-08-08T04:04:15.418Z,101469.28
2023-08-08T04:06:44.734Z,101458.63
2023-08-08T04:09:14.089Z,101459.50
2023-08-08T04:11:43.446Z,101456.00
2023-08-08T04:14:12.632Z,101456.06
2023-08-08T04:16:42.219Z,101456.19
2023-08-08T04:19:11.690Z,101450.81
2023-08-08T04:21:41.220Z,101451.81
2023-08-08T04:24:10.390Z,101446.50
2023-08-08T04:26:39.849Z,101443.94
2023-08-08T04:29:09.169Z,101437.88
2023-08-08T04:31:38.339Z,101452.28
2023-08-08T04:34:07.554Z,101454.16
2023-08-08T04:36:36.839Z,101456.88
2023-08-08T04:39:06.032Z,101463.16
2023-08-08T04:41:35.276Z,101459.63
2023-08-08T04:44:04.493Z,101458.81
2023-08-08T04:46:33.933Z,101448.03
2023-08-08T04:49:03.173Z,101447.09
2023-08-08T04:51:32.329Z,101448.84
2023-08-08T04:54:01.530Z,101447.09
2023-08-08T04:56:31.004Z,101445.25
2023-08-08T04:59:00.331Z,101439.94
2023-08-08T05:01:29.587Z,101442.63
2023-08-08T05:03:58.908Z,101440.81
2023-08-08T05:06:28.100Z,101439.03
2023-08-08T05:08:58.062Z,101441.69
2023-08-08T05:11:27.262Z,101441.75
2023-08-08T05:13:56.658Z,101441.69
2023-08-08T05:16:25.955Z,101448.78
2023-08-08T05:18:55.226Z,101442.47
2023-08-08T05:21:24.521Z,101446.88
2023-08-08T05:23:53.815Z,101450.34
2023-08-08T05:26:23.012Z,101456.53
2023-08-08T05:28:52.544Z,101452.84
2023-08-08T05:31:21.831Z,101458.25
2023-08-08T05:33:52.414Z,101459.13
2023-08-08T05:36:21.602Z,101461.75
2023-08-08T05:38:51.025Z,101464.50
2023-08-08T05:41:20.203Z,101455.59
2023-08-08T05:43:49.361Z,101462.69
2023-08-08T05:46:18.867Z,101465.44
2023-08-08T05:48:48.685Z,101468.97
2023-08-08T05:51:18.044Z,101469.84
2023-08-08T05:53:47.255Z,101471.53
2023-08-08T05:56:17.176Z,101460.81
2023-08-08T05:58:46.397Z,101467.88
2023-08-08T06:01:15.657Z,101465.09
2023-08-08T06:03:45.085Z,101468.63
2023-08-08T06:06:14.325Z,101467.66
2023-08-08T06:08:43.512Z,101464.84
2023-08-08T06:11:13.236Z,101462.91
2023-08-08T06:13:42.459Z,101469.13
2023-08-08T06:16:11.656Z,101477.00
2023-08-08T06:18:40.942Z,101476.78
2023-08-08T06:21:10.096Z,101476.50
2023-08-08T06:23:39.322Z,101477.81
2023-08-08T06:26:08.810Z,101471.69
2023-08-08T06:28:38.032Z,101483.16
2023-08-08T06:31:07.250Z,101480.75
2023-08-08T06:33:36.463Z,101481.56
2023-08-08T06:36:05.861Z,101480.59
2023-08-08T06:38:35.146Z,101478.63
2023-08-08T06:41:06.866Z,101492.91
2023-08-08T06:43:36.030Z,101477.91
2023-08-08T06:46:05.902Z,101482.16
2023-08-08T06:48:35.120Z,101480.75
2023-08-08T06:51:04.292Z,101485.06
2023-08-08T06:53:33.509Z,101480.78
2023-08-08T06:56:02.734Z,101482.63
2023-08-08T06:58:31.914Z,101483.69
2023-08-08T07:01:01.258Z,101484.75
2023-08-08T07:03:30.801Z,101475.16
2023-08-08T07:06:01.750Z,101482.66
2023-08-08T07:08:30.966Z,101470.78
2023-08-08T07:11:01.071Z,101473.06
2023-08-08T07:13:30.270Z,101465.22
2023-08-08T07:15:59.615Z,101477.81
2023-08-08T07:18:28.946Z,101468.44
2023-08-08T07:20:58.182Z,101471.50
2023-08-08T07:23:27.578Z,101467.94
2023-08-08T07:25:56.860Z,101474.72
2023-08-08T07:28:26.141Z,101458.13
2023-08-08T07:30:55.366Z,101460.56
2023-08-08T07:33:25.089Z,101469.63
2023-08-08T07:35:54.333Z,101455.66
2023-08-08T07:38:23.533Z,101462.25
2023-08-08T07:40:52.737Z,101456.41
2023-08-08T07:43:21.950Z,101453.06
2023-08-08T07:45:51.160Z,101452.16
2023-08-08T07:48:20.405Z,101446.81
2023-08-08T07:50:49.580Z,101442.81
2023-08-08T07:53:18.902Z,101446.47
2023-08-08T07:55:48.124Z,101440.09
2023-08-08T07:58:17.522Z,101447.22
2023-08-08T08:00:46.713Z,101449.03
2023-08-08T08:03:16.108Z,101460.25
2023-08-08T08:05:45.519Z,101450.69
2023-08-08T08:08:14.773Z,101454.66
2023-08-08T08:10:44.053Z,101451.38
2023-08-08T08:13:13.448Z,101444.63
2023-08-08T08:15:42.740Z,101440.94
2023-08-08T08:18:14.597Z,101445.88
2023-08-08T08:20:45.204Z,101449.25
2023-08-08T08:23:14.412Z,101437.09
2023-08-08T08:25:43.626Z,101431.69
2023-08-08T08:28:12.927Z,101443.31
2023-08-08T08:30:42.077Z,101437.13
2023-08-08T08:33:11.584Z,101434.91
2023-08-08T08:35:40.793Z,101427.97
2023-08-08T08:38:09.968Z,101444.78
2023-08-08T08:40:43.474Z,101450.41
2023-08-08T08:43:13.291Z,101448.44
2023-08-08T08:45:51.990Z,101445.53
2023-08-08T08:48:23.046Z,101454.06
2023-08-08T08:50:53.100Z,101442.69
2023-08-08T08:53:23.806Z,101446.72
2023-08-08T08:55:53.514Z,101440.84
2023-08-08T08:58:24.545Z,101451.09
2023-08-08T09:00:54.104Z,101455.69
2023-08-08T09:03:23.360Z,101458.91
2023-08-08T09:05:55.968Z,101460.25
2023-08-08T09:08:25.292Z,101466.81
2023-08-08T09:10:54.708Z,101456.28
2023-08-08T09:13:24.192Z,101462.25
2023-08-08T09:15:54.159Z,101457.47
2023-08-08T09:18:26.197Z,101455.72
2023-08-08T09:20:55.366Z,101460.84
2023-08-08T09:23:24.581Z,101457.63
2023-08-08T09:25:54.033Z,101466.50
2023-08-08T09:28:23.252Z,101458.25
2023-08-08T09:30:52.523Z,101456.66
2023-08-08T09:33:21.725Z,101458.63
2023-08-08T09:35:50.868Z,101448.88
2023-08-08T09:38:20.285Z,101441.19
2023-08-08T09:40:49.574Z,101440.81
2023-08-08T09:43:19.139Z,101447.47
2023-08-08T09:45:50.601Z,101437.69
2023-08-08T09:48:22.500Z,101438.03
2023-08-08T09:50:53.297Z,101450.16
2023-08-08T09:53:24.615Z,101451.56
2023-08-08T09:55:56.963Z,101458.22
2023-08-08T09:58:27.510Z,101459.09
2023-08-08T10:00:56.761Z,101467.91
2023-08-08T10:03:26.010Z,101466.59
2023-08-08T10:05:55.615Z,101463.88
2023-08-08T10:08:24.903Z,101462.81
2023-08-08T10:10:54.640Z,101481.66
2023-08-08T10:13:29.238Z,101470.34
2023-08-08T10:15:58.476Z,101465.91
2023-08-08T10:18:30.305Z,101459.78
2023-08-08T10:20:59.965Z,101457.06
2023-08-08T10:23:37.879Z,101456.44
2023-08-08T10:26:20.782Z,101468.34
2023-08-08T10:29:00.476Z,101471.88
2023-08-08T10:31:37.586Z,101472.13
2023-08-08T10:34:08.730Z,101483.09
2023-08-08T10:36:51.930Z,101478.84
2023-08-08T10:39:23.184Z,101470.16
2023-08-08T10:41:53.642Z,101481.66
2023-08-08T10:44:26.981Z,101475.97
2023-08-08T10:46:58.075Z,101468.34
2023-08-08T10:49:29.879Z,101481.19
2023-08-08T10:52:05.596Z,101472.81
2023-08-08T10:54:35.090Z,101471.97
2023-08-08T10:57:05.678Z,101481.53
2023-08-08T10:59:41.531Z,101475.25
2023-08-08T11:02:11.893Z,101468.63
2023-08-08T11:04:42.484Z,101467.47
2023-08-08T11:07:11.960Z,101467.41
2023-08-08T11:09:41.090Z,101475.34
2023-08-08T11:12:17.413Z,101468.03
2023-08-08T11:14:46.648Z,101480.88
2023-08-08T11:17:16.552Z,101468.91
2023-08-08T11:19:45.848Z,101483.28
2023-08-08T11:22:15.044Z,101475.63
2023-08-08T11:24:44.189Z,101478.13
2023-08-08T11:27:13.401Z,101471.66
2023-08-08T11:29:42.599Z,101469.63
2023-08-08T11:32:11.803Z,101453.34
2023-08-08T11:34:40.941Z,101461.41
2023-08-08T11:37:12.258Z,101468.31
2023-08-08T11:39:41.771Z,101464.09
2023-08-08T11:42:11.236Z,101451.66
2023-08-08T11:44:40.791Z,101445.06
2023-08-08T11:47:10.051Z,101449.53
2023-08-08T11:49:45.499Z,101449.03
2023-08-08T11:52:15.417Z,101460.91
2023-08-08T11:54:44.604Z,101460.50
2023-08-08T11:57:14.738Z,101449.00
2023-08-08T11:59:44.025Z,101449.31
2023-08-08T12:02:14.026Z,101445.59
2023-08-08T12:04:47.297Z,101445.59
2023-08-08T12:07:16.510Z,101441.38
2023-08-08T12:09:45.763Z,101448.22
2023-08-08T12:12:20.186Z,101449.94
2023-08-08T12:14:52.100Z,101446.94
2023-08-08T12:17:31.282Z,101444.44
2023-08-08T12:20:06.604Z,101446.13
2023-08-08T12:22:36.724Z,101451.88
2023-08-08T12:25:06.470Z,101451.31
2023-08-08T12:27:36.332Z,101461.59
2023-08-08T12:30:05.996Z,101451.59
2023-08-08T12:32:35.310Z,101440.00
2023-08-08T12:35:04.757Z,101451.09
2023-08-08T12:37:34.031Z,101450.47
2023-08-08T12:40:05.440Z,101454.34
2023-08-08T12:42:35.455Z,101445.16
2023-08-08T12:45:04.958Z,101443.63
2023-08-08T12:47:37.543Z,101446.91
2023-08-08T12:50:10.072Z,101445.34
2023-08-08T12:52:39.488Z,101440.78
2023-08-08T12:55:10.242Z,101445.69
2023-08-08T12:57:40.070Z,101437.47
2023-08-08T13:00:10.211Z,101440.84
2023-08-08T13:02:40.730Z,101434.72
2023-08-08T13:05:11.081Z,101450.44
2023-08-08T13:07:40.313Z,101451.69
2023-08-08T13:10:10.049Z,101449.66
2023-08-08T13:12:39.305Z,101455.28
2023-08-08T13:15:09.222Z,101450.09
2023-08-08T13:17:38.633Z,101454.66
2023-08-08T13:20:08.918Z,101445.69
2023-08-08T13:22:38.143Z,101448.13
2023-08-08T13:25:07.676Z,101453.00
2023-08-08T13:27:37.458Z,101447.00
2023-08-08T13:30:08.446Z,101462.19
2023-08-08T13:32:37.672Z,101453.47
2023-08-08T13:35:07.289Z,101466.97
2023-08-08T13:37:36.539Z,101458.31
2023-08-08T13:40:05.966Z,101466.91
2023-08-08T13:42:35.154Z,101479.56
2023-08-08T13:45:04.351Z,101473.09
2023-08-08T13:47:33.528Z,101468.06
2023-08-08T13:50:02.988Z,101485.63
2023-08-08T13:52:34.703Z,101482.44
2023-08-08T13:55:04.359Z,101483.78
2023-08-08T13:57:33.569Z,101484.75
2023-08-08T14:00:02.934Z,101480.31
2023-08-08T14:02:37.560Z,101482.63
2023-08-08T14:05:10.255Z,101484.78
2023-08-08T14:07:39.389Z,101489.97
2023-08-08T14:10:10.549Z,101487.16
2023-08-08T14:12:39.797Z,101496.22
2023-08-08T14:15:10.538Z,101486.28
2023-08-08T14:17:40.021Z,101490.72
2023-08-08T14:20:09.819Z,101480.09
2023-08-08T14:22:39.020Z,101490.84
2023-08-08T14:25:08.724Z,101476.91
2023-08-08T14:27:38.004Z,101480.00
2023-08-08T14:30:07.767Z,101470.44
2023-08-08T14:32:37.055Z,101483.19
2023-08-08T14:35:07.370Z,101483.13
2023-08-08T14:37:39.768Z,101477.59
2023-08-08T14:40:10.241Z,101477.03
2023-08-08T14:42:56.942Z,101468.16
2023-08-08T14:45:26.450Z,101450.78
2023-08-08T14:47:55.731Z,101461.56
2023-08-08T14:50:24.908Z,101476.06
2023-08-08T14:52:54.060Z,101464.19
2023-08-08T14:55:23.678Z,101456.16
2023-08-08T14:57:53.348Z,101465.81
2023-08-08T15:00:23.726Z,101473.19
2023-08-08T15:02:53.075Z,101477.72
2023-08-08T15:05:23.258Z,101470.47
2023-08-08T15:07:53.369Z,101479.16
2023-08-08T15:10:22.712Z,101481.56
2023-08-08T15:12:52.043Z,101483.59
2023-08-08T15:15:24.418Z,101489.00
2023-08-08T15:17:54.021Z,101474.16
2023-08-08T15:20:23.450Z,101484.09
2023-08-08T15:22:52.899Z,101488.03
2023-08-08T15:25:22.907Z,101492.47
2023-08-08T15:27:52.818Z,101495.94
2023-08-08T15:30:23.080Z,101482.63
2023-08-08T15:32:53.132Z,101490.91
2023-08-08T15:35:22.931Z,101490.13
2023-08-08T15:37:52.423Z,101490.34
2023-08-08T15:40:22.486Z,101484.34
2023-08-08T15:42:51.905Z,101484.75
2023-08-08T15:45:21.540Z,101490.31
2023-08-08T15:47:52.705Z,101488.66
2023-08-08T15:50:25.123Z,101491.28
2023-08-08T15:52:57.289Z,101480.06
2023-08-08T15:55:26.546Z,101478.91
2023-08-08T15:57:55.802Z,101473.94
2023-08-08T16:00:25.251Z,101474.13
2023-08-08T16:02:54.558Z,101463.22
2023-08-08T16:05:24.311Z,101467.53
2023-08-08T16:07:53.807Z,101468.97
2023-08-08T16:10:25.028Z,101462.88
2023-08-08T16:12:54.251Z,101467.59
2023-08-08T16:15:25.357Z,101467.00
2023-08-08T16:17:54.534Z,101460.50
2023-08-08T16:20:24.687Z,101464.53
2023-08-08T16:22:53.898Z,101466.28
2023-08-08T16:25:23.211Z,101469.06
2023-08-08T16:27:52.385Z,101463.00
2023-08-08T16:30:21.635Z,101468.16
2023-08-08T16:32:50.914Z,101462.88
2023-08-08T16:35:20.126Z,101465.56
2023-08-08T16:37:49.299Z,101471.91
2023-08-08T16:40:18.516Z,101465.72
2023-08-08T16:42:47.740Z,101466.09
2023-08-08T16:45:17.007Z,101473.41
2023-08-08T16:47:47.593Z,101463.22
2023-08-08T16:50:17.146Z,101466.09
2023-08-08T16:52:46.332Z,101459.41
2023-08-08T16:55:15.546Z,101463.06
2023-08-08T16:57:44.798Z,101473.84
2023-08-08T17:00:15.654Z,101465.75
2023-08-08T17:02:44.971Z,101471.09
2023-08-08T17:05:14.724Z,101469.19
2023-08-08T17:07:43.955Z,101467.63
2023-08-08T17:10:13.120Z,101459.03
2023-08-08T17:12:42.316Z,101461.84
2023-08-08T17:15:12.278Z,101455.59
2023-08-08T17:17:41.519Z,101454.09
2023-08-08T17:20:11.299Z,101459.25
2023-08-08T17:22:40.526Z,101470.38
2023-08-08T17:25:09.999Z,101462.78
2023-08-08T17:27:39.150Z,101463.06
2023-08-08T17:30:11.391Z,101463.41
2023-08-08T17:32:41.174Z,101469.38
2023-08-08T17:35:10.691Z,101478.63
2023-08-08T17:37:39.971Z,101475.56
2023-08-08T17:40:10.841Z,101468.75
2023-08-08T17:42:40.104Z,101473.19
2023-08-08T17:45:09.974Z,101468.94
2023-08-08T17:47:39.757Z,101470.28
2023-08-08T17:50:09.876Z,101470.06
2023-08-08T17:52:39.252Z,101470.06
2023-08-08T17:55:08.806Z,101466.63
2023-08-08T17:57:38.078Z,101462.25
2023-08-08T18:00:08.637Z,101463.44
2023-08-08T18:02:40.869Z,101458.84
2023-08-08T18:05:10.569Z,101459.03
2023-08-08T18:07:39.790Z,101451.97
2023-08-08T18:10:09.834Z,101449.44
2023-08-08T18:12:39.116Z,101443.31
2023-08-08T18:15:08.820Z,101442.56
2023-08-08T18:17:38.195Z,101444.38
2023-08-08T18:20:10.511Z,101438.13
2023-08-08T18:22:40.038Z,101440.91
2023-08-08T18:25:10.269Z,101444.75
2023-08-08T18:27:39.597Z,101451.97
2023-08-08T18:30:09.404Z,101442.06
2023-08-08T18:32:38.745Z,101445.81
2023-08-08T18:35:08.689Z,101437.34
2023-08-08T18:37:39.603Z,101445.66
2023-08-08T18:40:12.909Z,101436.00
2023-08-08T18:42:42.708Z,101439.09
2023-08-08T18:45:12.265Z,101446.63
2023-08-08T18:47:42.487Z,101439.81
2023-08-08T18:50:12.281Z,101439.88
2023-08-08T18:52:41.445Z,101444.56
2023-08-08T18:55:10.751Z,101446.53
2023-08-08T18:57:39.970Z,101444.78
2023-08-08T19:00:09.658Z,101438.00
2023-08-08T19:02:39.033Z,101445.66
2023-08-08T19:05:09.554Z,101443.31
2023-08-08T19:07:38.978Z,101439.06
2023-08-08T19:10:08.603Z,101432.75
2023-08-08T19:12:37.799Z,101431.94
2023-08-08T19:15:08.057Z,101441.94
2023-08-08T19:17:53.682Z,101442.19
2023-08-08T19:20:25.915Z,101445.72
2023-08-08T19:22:55.129Z,101452.19
2023-08-08T19:25:25.120Z,101451.38
2023-08-08T19:27:54.325Z,101443.72
2023-08-08T19:30:23.676Z,101433.66
2023-08-08T19:32:52.951Z,101443.72
2023-08-08T19:35:22.250Z,101439.22
2023-08-08T19:37:51.423Z,101452.47
2023-08-08T19:40:21.197Z,101441.84
2023-08-08T19:42:50.443Z,101441.91
2023-08-08T19:45:19.631Z,101439.16
2023-08-08T19:47:49.136Z,101431.16
2023-08-08T19:50:18.564Z,101434.13
2023-08-08T19:52:48.396Z,101447.88
2023-08-08T19:55:17.569Z,101442.69
2023-08-08T19:57:46.740Z,101427.69
2023-08-08T20:00:17.920Z,101438.50
2023-08-08T20:02:47.476Z,101429.72
2023-08-08T20:05:16.778Z,101413.75
2023-08-08T20:07:45.959Z,101411.22
2023-08-08T20:10:15.305Z,101417.47
2023-08-08T20:12:44.752Z,101409.41
2023-08-08T20:15:14.165Z,101410.28
2023-08-08T20:17:44.473Z,101414.78
2023-08-08T20:20:14.142Z,101421.91
2023-08-08T20:22:43.318Z,101419.34
2023-08-08T20:25:13.409Z,101423.91
2023-08-08T20:27:42.870Z,101433.03
2023-08-08T20:30:13.299Z,101428.53
2023-08-08T20:32:42.710Z,101419.72
2023-08-08T20:35:11.927Z,101410.94
2023-08-08T20:37:41.088Z,101406.72
2023-08-08T20:40:10.489Z,101419.25
2023-08-08T20:42:39.734Z,101432.84
2023-08-08T20:45:09.701Z,101441.69
2023-08-08T20:47:39.218Z,101439.16
2023-08-08T20:50:09.477Z,101432.22
2023-08-08T20:52:38.972Z,101424.19
2023-08-08T20:55:08.598Z,101442.09
2023-08-08T20:57:38.078Z,101439.41
2023-08-08T21:00:10.165Z,101420.69
2023-08-08T21:02:39.537Z,101420.00
2023-08-08T21:05:09.509Z,101418.25
2023-08-08T21:07:40.306Z,101401.19
2023-08-08T21:10:09.828Z,101393.22
2023-08-08T21:12:39.069Z,101395.97
2023-08-08T21:15:08.692Z,101383.50
2023-08-08T21:17:44.171Z,101390.66
2023-08-08T21:20:14.497Z,101397.78
2023-08-08T21:22:44.252Z,101395.16
2023-08-08T21:25:15.714Z,101386.41
2023-08-08T21:27:45.345Z,101385.47
2023-08-08T21:30:14.696Z,101389.97
2023-08-08T21:32:44.163Z,101381.03
2023-08-08T21:35:13.555Z,101371.25
2023-08-08T21:37:43.199Z,101362.25
2023-08-08T21:40:13.482Z,101368.56
2023-08-08T21:42:42.857Z,101391.03
2023-08-08T21:45:12.951Z,101376.94
2023-08-08T21:47:43.121Z,101375.41
2023-08-08T21:50:12.410Z,101388.00
2023-08-08T21:52:41.774Z,101385.38
2023-08-08T21:55:11.304Z,101394.38
2023-08-08T21:57:41.080Z,101398.00
2023-08-08T22:00:15.743Z,101399.91
2023-08-08T22:02:45.332Z,101402.59
2023-08-08T22:05:14.934Z,101401.66
2023-08-08T22:07:44.326Z,101399.81
2023-08-08T22:10:14.027Z,101406.03
2023-08-08T22:12:43.991Z,101401.53
2023-08-08T22:15:14.071Z,101405.25
2023-08-08T22:17:50.320Z,101415.19
2023-08-08T22:20:26.740Z,101403.59
2023-08-08T22:22:57.913Z,101409.00
2023-08-08T22:25:32.866Z,101405.47
2023-08-08T22:28:02.579Z,101403.66
2023-08-08T22:30:32.525Z,101415.19
2023-08-08T22:33:02.263Z,101415.31
2023-08-08T22:35:32.372Z,101431.41
2023-08-08T22:38:01.772Z,101423.28
2023-08-08T22:40:31.793Z,101425.16
2023-08-08T22:43:00.959Z,101414.38
2023-08-08T22:45:31.193Z,101409.81
2023-08-08T22:48:01.329Z,101397.22
2023-08-08T22:50:31.407Z,101406.19
2023-08-08T22:53:01.477Z,101400.03
2023-08-08T22:55:31.326Z,101390.97
2023-08-08T22:58:00.572Z,101392.78
2023-08-08T23:00:30.108Z,101396.41
2023-08-08T23:03:00.434Z,101409.00
2023-08-08T23:05:30.286Z,101397.47
2023-08-08T23:07:59.770Z,101398.47
2023-08-08T23:10:29.397Z,101391.41
2023-08-08T23:12:58.971Z,101393.97
2023-08-08T23:15:28.136Z,101393.34
2023-08-08T23:17:57.383Z,101385.41
2023-08-08T23:20:26.804Z,101383.84
2023-08-08T23:22:56.000Z,101393.81
2023-08-08T23:25:26.664Z,101389.44
2023-08-08T23:27:56.130Z,101395.88
2023-08-08T23:30:26.074Z,101404.00
2023-08-08T23:32:55.991Z,101401.47
2023-08-08T23:35:26.497Z,101407.75
2023-08-08T23:37:55.745Z,101405.94
2023-08-08T23:40:25.357Z,101411.50
2023-08-08T23:42:54.595Z,101405.25
2023-08-08T23:45:25.574Z,101405.25
2023-08-08T23:47:54.802Z,101408.03
2023-08-08T23:50:24.313Z,101409.91
2023-08-08T23:52:53.627Z,101406.34
2023-08-08T23:55:23.138Z,101409.09
2023-08-08T23:57:52.986Z,101405.66
